Time;durP1;ratioP1;P1;durP2;ratioP2;P2;SDS_P1;SDS_P2;PMS_P1;PMS_P2;Temp;Humidity;BMP_temperature;BMP_pressure;BME280_temperature;BME280_humidity;BME280_pressure;Samples;Min_cycle;Max_cycle;Signal;HPM_P1;HPM_P2
2022/07/18 00:00:44;;;;;;;;;6.75;6.75;;;;;28.99;23.06;101437.09;5028556;28;47600;-90
2022/07/18 00:03:10;;;;;;;;;8.00;8.00;;;;;29.00;23.47;101432.53;5044791;28;47335;-89
2022/07/18 00:05:36;;;;;;;;;13.25;12.00;;;;;28.95;23.20;101435.03;5027920;28;45464;-90
2022/07/18 00:08:01;;;;;;;;;12.00;10.00;;;;;28.98;23.41;101445.44;5028892;28;45840;-87
2022/07/18 00:11:09;;;;;;;;;;;;;;;;;;;;;
2022/07/18 00:14:51;;;;;;;;;12.50;11.50;;;;;28.94;24.03;101428.81;5023236;28;74476;-88
2022/07/18 00:30:51;;;;;;;;;6.25;5.25;;;;;28.72;23.81;101422.81;4995496;28;45722;-87
2022/07/18 00:33:16;;;;;;;;;7.00;6.00;;;;;28.68;23.85;101418.84;4996591;28;47666;-86
2022/07/18 00:35:42;;;;;;;;;8.00;7.00;;;;;28.61;23.61;101406.41;4978154;28;46216;-88
2022/07/18 00:38:07;;;;;;;;;8.00;7.25;;;;;28.70;23.73;101426.72;4961898;28;45837;-86
2022/07/18 00:40:33;;;;;;;;;6.00;5.00;;;;;28.66;24.01;101426.31;4980618;28;45628;-89
2022/07/18 00:42:58;;;;;;;;;6.00;5.50;;;;;28.59;24.26;101419.25;4995955;28;45953;-90
2022/07/18 00:45:26;;;;;;;;;6.25;5.50;;;;;28.62;24.07;101429.63;4976923;28;47742;-87
2022/07/18 00:47:51;;;;;;;;;6.50;6.50;;;;;28.61;24.47;101425.28;4992999;28;45725;-89
2022/07/18 00:50:21;;;;;;;;;4.00;3.50;;;;;28.50;23.77;101413.25;4961080;28;45640;-89
2022/07/18 00:52:47;;;;;;;;;3.75;3.75;;;;;28.50;24.10;101415.94;4975642;28;47970;-87
2022/07/18 00:55:14;;;;;;;;;3.75;3.75;;;;;28.48;24.52;101407.22;4993666;28;45907;-88
2022/07/18 00:57:40;;;;;;;;;5.00;5.00;;;;;28.42;24.57;101418.00;4993931;28;46045;-89
2022/07/18 01:02:58;;;;;;;;;2.00;2.00;;;;;28.38;23.77;101410.34;4968392;28;46070;-86
2022/07/18 01:05:24;;;;;;;;;4.75;4.00;;;;;28.36;24.59;101408.88;4991931;28;46081;-86
2022/07/18 01:07:51;;;;;;;;;3.00;3.00;;;;;28.28;24.51;101401.00;5031402;28;45979;-93
2022/07/18 01:10:18;;;;;;;;;4.50;4.25;;;;;28.33;24.28;101415.53;5073497;28;45672;-87
2022/07/18 01:12:44;;;;;;;;;3.50;3.25;;;;;28.29;24.51;101410.72;5062259;28;48692;-89
2022/07/18 01:15:09;;;;;;;;;4.00;3.00;;;;;28.17;24.74;101397.03;5066545;28;47267;-90
2022/07/18 01:18:10;;;;;;;;;4.00;4.00;;;;;28.27;24.49;101410.13;5082871;28;45602;-93
2022/07/18 01:20:35;;;;;;;;;3.75;3.75;;;;;28.24;24.57;101407.81;5072439;28;45712;-92
2022/07/18 01:23:01;;;;;;;;;3.00;3.00;;;;;28.20;24.24;101410.09;5083274;28;45892;-92
2022/07/18 01:25:27;;;;;;;;;4.50;3.00;;;;;28.10;24.36;101401.56;5083250;28;45560;-91
2022/07/18 01:27:53;;;;;;;;;3.50;3.50;;;;;28.12;24.49;101401.34;5084079;27;45672;-92
2022/07/18 01:30:19;;;;;;;;;6.00;6.00;;;;;28.06;24.16;101403.00;5079192;28;45752;-90
2022/07/18 01:32:45;;;;;;;;;4.75;4.50;;;;;28.05;24.27;101405.88;5079113;28;46572;-88
2022/07/18 01:35:10;;;;;;;;;4.00;4.00;;;;;27.97;24.42;101406.91;5081439;28;46099;-90
2022/07/18 01:38:24;;;;;;;;;;;;;;;;;;;;;
2022/07/18 01:44:17;;;;;;;;;;;;;;;;;;;;;
2022/07/18 01:47:31;;;;;;;;;5.00;5.00;;;;;27.71;24.43;101382.56;4982664;28;75837;-89
2022/07/18 01:49:55;;;;;;;;;3.25;3.00;;;;;27.94;24.09;101413.53;4975445;28;46211;-89
2022/07/18 01:52:21;;;;;;;;;3.75;3.25;;;;;27.86;24.77;101400.22;4981477;28;46068;-85
2022/07/18 01:54:46;;;;;;;;;6.00;5.00;;;;;27.88;24.93;101406.25;5003033;28;45841;-89
2022/07/18 01:57:12;;;;;;;;;6.25;4.00;;;;;27.84;25.17;101398.78;4995738;28;47295;-88
2022/07/18 02:11:15;;;;;;;;;3.25;3.25;;;;;27.84;25.08;101378.06;4975400;28;45767;-91
2022/07/18 02:13:41;;;;;;;;;4.25;4.00;;;;;27.65;24.55;101353.75;4902590;28;45896;-95
2022/07/18 02:16:53;;;;;;;;;3.75;3.00;;;;;27.73;25.11;101364.38;4923349;28;48131;-91
2022/07/18 02:19:57;;;;;;;;;4.00;4.00;;;;;27.68;25.36;101353.38;4845600;29;46420;-91
2022/07/18 02:22:27;;;;;;;;;6.00;5.00;;;;;27.78;25.03;101362.72;4780599;29;45777;-89
2022/07/18 02:25:05;;;;;;;;;;;;;;;;;;;;;
2022/07/18 02:28:06;;;;;;;;;4.00;3.25;;;;;27.60;24.72;101348.16;4783752;29;75151;-88
2022/07/18 02:30:33;;;;;;;;;4.00;3.75;;;;;27.68;25.41;101369.53;4778963;29;45901;-86
2022/07/18 02:34:10;;;;;;;;;;;;;;;;;;;;;
2022/07/18 02:39:15;;;;;;;;;4.00;4.00;;;;;27.54;25.07;101365.94;5168810;22;46057;-88
2022/07/18 02:42:28;;;;;;;;;5.50;5.00;;;;;27.50;25.07;101353.91;5097099;28;45226;-84
2022/07/18 02:45:05;;;;;;;;;4.00;4.00;;;;;27.68;24.95;101383.81;5070315;28;45549;-87
2022/07/18 02:47:34;;;;;;;;;5.00;5.00;;;;;27.53;25.12;101357.03;5072293;28;45676;-95
2022/07/18 02:50:03;;;;;;;;;4.50;4.00;;;;;27.53;25.40;101370.50;5081030;28;45932;-88
2022/07/18 02:52:28;;;;;;;;;5.00;4.00;;;;;27.53;24.87;101369.69;5060391;28;45812;-80
2022/07/18 02:54:56;;;;;;;;;4.75;4.00;;;;;27.54;25.55;101377.53;5082039;28;45719;-80
2022/07/18 02:57:22;;;;;;;;;6.25;4.00;;;;;27.56;25.49;101388.13;5089490;28;45715;-82
2022/07/18 02:59:48;;;;;;;;;5.00;4.00;;;;;27.50;25.58;101384.38;5066998;28;45975;-84
2022/07/18 03:02:13;;;;;;;;;3.00;3.00;;;;;27.41;25.63;101377.47;5081821;28;45622;-79
2022/07/18 03:04:41;;;;;;;;;5.00;4.00;;;;;27.46;25.21;101382.25;5063412;28;45712;-84
2022/07/18 03:07:07;;;;;;;;;5.00;5.00;;;;;27.44;25.55;101378.91;5075188;28;45689;-81
2022/07/18 03:09:32;;;;;;;;;4.25;4.00;;;;;27.46;25.46;101385.78;5055721;28;48380;-81
2022/07/18 03:15:24;;;;;;;;;3.25;3.25;;;;;27.44;25.94;101401.28;5040984;28;45912;-83
2022/07/18 03:17:51;;;;;;;;;4.00;4.00;;;;;27.42;25.48;101384.50;5075097;28;45671;-84
2022/07/18 03:20:16;;;;;;;;;5.00;4.00;;;;;27.34;25.64;101379.31;5081950;28;46442;-82
2022/07/18 03:22:42;;;;;;;;;4.00;4.00;;;;;27.37;25.63;101381.56;5085632;28;45709;-89
2022/07/18 03:25:07;;;;;;;;;4.00;4.00;;;;;27.42;25.31;101378.31;5089332;28;45797;-81
2022/07/18 03:27:33;;;;;;;;;3.00;2.50;;;;;27.43;25.61;101378.09;5088667;28;45986;-80
2022/07/18 03:29:58;;;;;;;;;3.50;3.50;;;;;27.42;25.48;101373.72;5089289;28;45703;-80
2022/07/18 03:32:24;;;;;;;;;4.50;4.50;;;;;27.41;25.38;101373.94;5074181;28;45558;-80
2022/07/18 03:34:50;;;;;;;;;5.75;4.00;;;;;27.39;25.94;101370.63;5049136;28;45682;-81
2022/07/18 03:37:16;;;;;;;;;3.50;3.50;;;;;27.28;25.55;101360.41;5080992;28;46197;-81
2022/07/18 03:39:41;;;;;;;;;4.50;4.00;;;;;27.35;25.24;101370.19;5081134;27;46585;-83
2022/07/18 03:42:07;;;;;;;;;4.00;3.50;;;;;27.35;25.76;101366.66;5061722;28;47320;-82
2022/07/18 03:44:32;;;;;;;;;3.75;3.75;;;;;27.27;25.42;101354.19;5049130;28;45570;-82
2022/07/18 03:46:58;;;;;;;;;4.00;4.00;;;;;27.29;26.05;101354.00;5074326;28;45692;-85
2022/07/18 03:49:34;;;;;;;;;4.25;4.25;;;;;27.19;25.60;101334.72;5059097;28;46824;-83
2022/07/18 03:51:59;;;;;;;;;4.75;4.75;;;;;27.20;26.25;101347.16;5075180;28;45937;-84
2022/07/18 03:54:25;;;;;;;;;4.25;4.25;;;;;27.23;25.92;101355.63;5057094;28;45766;-83
2022/07/18 03:56:50;;;;;;;;;3.25;3.25;;;;;27.18;25.84;101352.72;5080533;28;45459;-86
2022/07/18 03:59:18;;;;;;;;;4.00;3.50;;;;;27.22;26.32;101355.84;5086184;27;46231;-82
2022/07/18 04:01:44;;;;;;;;;4.00;3.25;;;;;27.07;26.40;101342.50;5065884;28;47891;-83
2022/07/18 04:04:09;;;;;;;;;3.75;3.50;;;;;27.17;25.87;101367.19;5082435;28;45747;-85
2022/07/18 04:06:36;;;;;;;;;3.00;3.00;;;;;27.14;26.41;101356.84;5062455;28;45652;-85
2022/07/18 04:09:02;;;;;;;;;4.00;4.00;;;;;27.11;26.42;101365.28;5043167;28;46666;-86
2022/07/18 04:11:27;;;;;;;;;3.00;3.00;;;;;27.06;26.21;101359.69;5071913;28;47541;-82
2022/07/18 04:13:54;;;;;;;;;2.75;2.75;;;;;27.00;26.09;101363.16;5078846;28;46115;-85
2022/07/18 04:16:19;;;;;;;;;6.00;5.00;;;;;26.99;26.56;101361.53;5079580;27;45676;-88
2022/07/18 04:18:46;;;;;;;;;4.75;4.75;;;;;27.10;26.17;101379.78;5078796;28;46609;-82
2022/07/18 04:21:12;;;;;;;;;4.50;4.00;;;;;27.07;26.43;101380.19;5068384;28;46647;-84
2022/07/18 04:23:38;;;;;;;;;5.75;5.00;;;;;27.07;26.31;101389.09;5077502;28;45689;-85
2022/07/18 04:26:10;;;;;;;;;4.00;4.00;;;;;27.02;26.21;101375.41;5080485;28;45581;-89
2022/07/18 04:28:36;;;;;;;;;5.00;4.25;;;;;27.06;26.40;101379.34;5072889;28;45714;-89
2022/07/18 04:31:01;;;;;;;;;5.00;4.00;;;;;27.05;26.04;101377.69;5062981;28;46798;-89
2022/07/18 04:33:27;;;;;;;;;3.50;3.50;;;;;27.01;26.29;101375.59;5079327;27;45712;-90
2022/07/18 04:35:52;;;;;;;;;2.25;2.25;;;;;26.97;26.22;101366.25;5079483;28;45657;-89
2022/07/18 04:38:18;;;;;;;;;3.50;3.00;;;;;26.98;26.49;101354.47;5061305;28;46292;-84
2022/07/18 04:40:43;;;;;;;;;4.75;4.00;;;;;26.95;26.21;101344.94;5079881;28;46101;-82
2022/07/18 04:43:09;;;;;;;;;4.75;4.00;;;;;27.02;26.63;101355.72;5062177;28;45586;-88
2022/07/18 04:45:35;;;;;;;;;5.00;5.00;;;;;26.94;26.44;101331.66;5081132;28;45450;-88
2022/07/18 04:48:03;;;;;;;;;4.00;4.00;;;;;26.94;26.62;101332.50;5077941;28;45786;-89
2022/07/18 04:50:32;;;;;;;;;4.75;4.00;;;;;26.95;26.90;101334.16;5077792;27;46494;-92
2022/07/18 04:52:58;;;;;;;;;4.00;4.00;;;;;26.96;26.61;101338.53;5080279;28;46105;-87
2022/07/18 04:55:33;;;;;;;;;4.00;3.75;;;;;26.89;26.76;101324.19;5084586;28;45747;-90
2022/07/18 04:58:27;;;;;;;;;4.25;4.25;;;;;26.96;26.20;101335.84;5090936;28;45955;-89
2022/07/18 05:01:40;;;;;;;;;5.00;4.00;;;;;26.89;26.84;101317.97;5054083;27;45805;-86
2022/07/18 05:04:06;;;;;;;;;4.00;4.00;;;;;26.94;26.33;101323.59;4949482;28;45791;-82
2022/07/18 05:06:34;;;;;;;;;5.25;4.50;;;;;26.82;26.73;101300.97;4921681;28;46073;-91
2022/07/18 05:09:00;;;;;;;;;5.25;4.25;;;;;26.78;26.53;101292.44;4936324;28;47353;-87
2022/07/18 05:11:25;;;;;;;;;6.00;5.00;;;;;26.93;26.75;101309.34;4936323;28;46128;-84
2022/07/18 05:13:51;;;;;;;;;5.00;4.50;;;;;26.89;27.20;101307.22;4925110;28;45789;-87
2022/07/18 05:16:41;;;;;;;;;6.00;6.00;;;;;26.91;26.71;101314.09;4928695;28;45530;-93
2022/07/18 05:19:25;;;;;;;;;3.50;3.50;;;;;26.88;26.97;101301.03;4945096;28;47316;-87
2022/07/18 05:21:56;;;;;;;;;5.75;4.50;;;;;26.64;27.21;101261.97;4938993;28;46873;-89
2022/07/18 05:24:21;;;;;;;;;4.75;3.25;;;;;26.84;27.01;101304.28;4938309;28;45703;-82
2022/07/18 05:26:47;;;;;;;;;4.00;4.00;;;;;26.68;26.70;101276.69;4935064;28;45898;-83
2022/07/18 05:29:12;;;;;;;;;4.00;4.00;;;;;26.71;26.82;101284.38;4933671;28;47013;-82
2022/07/18 05:31:40;;;;;;;;;7.75;5.00;;;;;26.74;27.39;101273.19;4933572;28;46912;-83
2022/07/18 05:34:06;;;;;;;;;5.75;5.00;;;;;26.79;27.34;101277.97;4936697;28;45717;-89
2022/07/18 05:36:32;;;;;;;;;4.75;4.25;;;;;26.80;27.26;101286.88;4921356;28;46135;-88
2022/07/18 05:38:58;;;;;;;;;4.00;4.00;;;;;26.65;27.18;101271.72;4973270;28;45789;-83
2022/07/18 05:41:24;;;;;;;;;5.50;5.00;;;;;26.69;27.43;101299.84;5031604;28;47439;-91
2022/07/18 05:43:51;;;;;;;;;6.00;4.00;;;;;26.77;27.01;101333.84;5047552;28;46770;-87
2022/07/18 05:46:17;;;;;;;;;5.25;5.00;;;;;26.77;26.87;101349.13;5041040;28;45446;-92
2022/07/18 05:48:42;;;;;;;;;8.00;8.00;;;;;26.66;27.50;101337.91;5059820;28;45925;-86
2022/07/18 05:51:08;;;;;;;;;4.50;4.00;;;;;26.67;26.88;101330.63;5048980;28;45545;-85
2022/07/18 05:54:03;;;;;;;;;6.50;4.75;;;;;26.74;27.62;101340.44;5066746;28;45074;-83
2022/07/18 05:57:45;;;;;;;;;;;;;;;;;;;;;
2022/07/18 06:00:27;;;;;;;;;5.25;5.00;;;;;26.58;27.11;101318.38;4895231;28;77236;-90
2022/07/18 06:03:00;;;;;;;;;4.00;3.25;;;;;26.75;27.48;101338.56;4919688;28;46563;-92
2022/07/18 06:05:26;;;;;;;;;4.25;3.75;;;;;26.76;27.36;101344.78;4912142;28;46173;-90
2022/07/18 06:07:54;;;;;;;;;6.50;5.75;;;;;26.78;27.48;101332.78;4900398;29;45732;-91
2022/07/18 06:10:20;;;;;;;;;6.25;4.25;;;;;26.87;27.37;101346.94;4913481;28;46661;-88
2022/07/18 06:12:46;;;;;;;;;5.75;5.00;;;;;26.79;27.48;101328.25;4901299;28;45720;-93
2022/07/18 06:15:13;;;;;;;;;5.50;3.75;;;;;26.87;26.76;101330.78;4899322;29;45853;-90
2022/07/18 06:17:38;;;;;;;;;4.25;4.25;;;;;26.90;27.36;101333.94;4903465;29;45942;-89
2022/07/18 06:20:05;;;;;;;;;4.00;4.00;;;;;26.85;27.15;101317.53;4900085;28;48671;-85
2022/07/18 06:22:30;;;;;;;;;4.25;4.00;;;;;26.93;27.37;101330.03;4916399;28;46000;-85
2022/07/18 06:24:56;;;;;;;;;4.00;3.25;;;;;26.96;27.57;101333.16;4907590;29;45772;-85
2022/07/18 06:27:21;;;;;;;;;6.00;5.25;;;;;26.92;27.54;101323.00;4908971;29;45679;-88
2022/07/18 06:29:47;;;;;;;;;7.25;5.00;;;;;27.01;27.41;101343.31;4910363;28;47208;-88
2022/07/18 06:32:12;;;;;;;;;4.00;4.00;;;;;26.99;27.46;101329.25;4919163;28;46456;-88
2022/07/18 06:35:12;;;;;;;;;5.50;4.75;;;;;27.07;27.57;101342.50;4950882;28;45183;-91
2022/07/18 06:37:41;;;;;;;;;4.50;4.00;;;;;27.01;27.36;101324.47;5055710;28;45109;-87
2022/07/18 06:40:07;;;;;;;;;6.00;5.25;;;;;27.08;27.40;101338.81;5031748;28;47480;-88
2022/07/18 06:42:33;;;;;;;;;6.00;5.00;;;;;27.15;27.34;101351.25;5047506;28;46718;-90
2022/07/18 06:44:58;;;;;;;;;5.25;5.25;;;;;27.12;27.66;101340.88;5063280;28;45736;-86
2022/07/18 06:47:24;;;;;;;;;7.25;6.00;;;;;27.10;27.62;101342.94;5061104;28;45874;-84
2022/07/18 06:49:49;;;;;;;;;5.75;5.75;;;;;27.14;27.01;101348.78;5050944;28;45821;-83
2022/07/18 06:52:15;;;;;;;;;4.00;4.00;;;;;27.21;27.58;101352.31;5046717;28;45628;-78
2022/07/18 06:54:41;;;;;;;;;4.25;4.00;;;;;27.22;28.05;101350.44;5031878;28;45871;-77
2022/07/18 06:57:09;;;;;;;;;2.25;2.25;;;;;27.26;27.72;101352.53;5047711;28;45675;-75
2022/07/18 06:59:35;;;;;;;;;4.75;4.50;;;;;27.25;27.32;101350.06;5019042;28;47285;-76
2022/07/18 07:02:01;;;;;;;;;3.25;3.00;;;;;27.29;26.94;101351.31;5050453;28;46323;-76
2022/07/18 07:04:26;;;;;;;;;6.00;6.00;;;;;27.30;27.22;101353.81;5033180;28;45839;-75
2022/07/18 07:06:52;;;;;;;;;4.00;4.00;;;;;27.30;27.14;101343.06;5051065;28;45980;-76
2022/07/18 07:09:17;;;;;;;;;5.00;4.50;;;;;27.32;27.74;101354.44;5051500;28;45699;-76
2022/07/18 07:11:43;;;;;;;;;4.50;4.50;;;;;27.35;27.41;101347.81;5048674;28;46461;-75
2022/07/18 07:14:08;;;;;;;;;5.75;4.50;;;;;27.35;27.10;101347.81;5047905;28;45816;-75
2022/07/18 07:16:34;;;;;;;;;4.75;4.75;;;;;27.38;27.39;101356.31;5050847;28;46143;-75
2022/07/18 07:18:59;;;;;;;;;5.00;5.00;;;;;27.41;27.24;101355.94;5043457;28;46376;-75
2022/07/18 07:21:25;;;;;;;;;5.00;5.00;;;;;27.44;27.06;101362.78;5044487;28;46063;-75
2022/07/18 07:23:50;;;;;;;;;7.25;5.00;;;;;27.48;27.18;101359.47;5041750;28;45785;-76
2022/07/18 07:26:15;;;;;;;;;4.00;4.00;;;;;27.51;27.14;101356.44;5041946;28;45693;-76
2022/07/18 07:28:41;;;;;;;;;4.75;4.00;;;;;27.52;27.22;101341.09;5039426;28;46375;-77
2022/07/18 07:31:06;;;;;;;;;5.50;4.50;;;;;27.57;28.99;101344.00;5037246;28;45875;-75
2022/07/18 07:33:32;;;;;;;;;7.00;6.00;;;;;27.59;30.22;101335.72;5050334;28;45898;-76
2022/07/18 07:35:57;;;;;;;;;7.75;5.50;;;;;27.62;28.60;101340.72;5049005;28;45953;-76
2022/07/18 07:38:27;;;;;;;;;6.50;4.50;;;;;27.61;29.01;101339.88;5050334;28;48040;-75
2022/07/18 07:40:54;;;;;;;;;7.00;6.00;;;;;27.63;30.16;101348.59;5071887;27;46757;-76
2022/07/18 07:43:19;;;;;;;;;6.00;6.00;;;;;27.64;31.24;101338.66;5070519;28;47043;-74
2022/07/18 07:45:50;;;;;;;;;7.00;6.25;;;;;27.67;31.30;101332.84;5070448;28;45805;-74
2022/07/18 07:48:16;;;;;;;;;7.00;6.00;;;;;27.68;31.27;101331.81;5066294;28;46478;-77
2022/07/18 07:50:42;;;;;;;;;7.00;6.00;;;;;27.69;30.77;101337.00;5047182;28;47648;-76
2022/07/18 07:53:09;;;;;;;;;6.75;6.00;;;;;27.70;30.68;101332.44;5071028;28;45781;-75
2022/07/18 07:55:35;;;;;;;;;6.00;5.25;;;;;27.70;31.35;101327.88;5057080;28;45632;-75
2022/07/18 07:58:00;;;;;;;;;6.00;5.00;;;;;27.73;31.51;101332.88;5061393;27;45743;-74
2022/07/18 08:00:27;;;;;;;;;5.50;5.00;;;;;27.75;30.96;101324.56;5052415;28;45737;-74
2022/07/18 08:02:59;;;;;;;;;6.50;6.00;;;;;27.76;30.15;101323.53;5070402;28;46035;-74
2022/07/18 08:05:25;;;;;;;;;6.00;5.00;;;;;27.79;30.78;101321.28;5069917;28;46054;-75
2022/07/18 08:07:51;;;;;;;;;7.50;6.00;;;;;27.82;30.25;101318.16;5068906;28;47293;-75
2022/07/18 08:10:17;;;;;;;;;6.75;5.50;;;;;27.82;31.04;101315.47;5069519;28;47221;-74
2022/07/18 08:12:43;;;;;;;;;7.75;6.50;;;;;27.88;31.46;101316.53;5070512;28;45603;-75
2022/07/18 08:15:09;;;;;;;;;5.25;5.00;;;;;27.93;30.95;101328.34;5069739;27;46784;-78
2022/07/18 08:17:35;;;;;;;;;6.75;6.25;;;;;27.92;30.30;101315.06;5051577;28;47881;-81
2022/07/18 08:20:01;;;;;;;;;6.00;6.00;;;;;27.96;30.97;101319.03;5070649;28;45836;-81
2022/07/18 08:22:26;;;;;;;;;6.00;6.00;;;;;27.99;30.85;101310.53;5071344;28;46286;-79
2022/07/18 08:24:52;;;;;;;;;7.50;6.25;;;;;28.02;31.24;101312.00;5070399;28;45750;-81
2022/07/18 08:27:17;;;;;;;;;10.50;7.00;;;;;28.06;31.06;101310.53;5070349;28;46703;-82
2022/07/18 08:29:43;;;;;;;;;5.00;5.00;;;;;28.14;30.82;101321.97;5070326;28;46398;-80
2022/07/18 08:32:08;;;;;;;;;6.25;5.25;;;;;28.12;30.42;101310.59;5071164;27;46383;-81
2022/07/18 08:34:34;;;;;;;;;6.50;6.00;;;;;28.16;30.66;101319.06;5069838;28;45811;-80
2022/07/18 08:37:00;;;;;;;;;7.00;6.75;;;;;28.17;29.57;101316.19;5069177;28;45632;-78
2022/07/18 08:39:25;;;;;;;;;6.00;5.00;;;;;28.25;29.56;101320.53;5070332;28;46048;-80
2022/07/18 08:41:51;;;;;;;;;6.00;6.00;;;;;28.30;31.58;101315.34;5059649;28;46056;-80
2022/07/18 08:44:17;;;;;;;;;7.25;6.75;;;;;28.37;30.41;101313.47;5068647;28;45637;-81
2022/07/18 08:46:50;;;;;;;;;7.75;6.75;;;;;28.44;29.67;101317.00;5069811;28;46939;-81
2022/07/18 08:49:16;;;;;;;;;7.50;6.00;;;;;28.42;30.33;101310.16;5078415;27;46617;-85
2022/07/18 08:51:43;;;;;;;;;7.25;6.00;;;;;28.54;29.23;101314.72;5070288;28;45734;-80
2022/07/18 08:54:09;;;;;;;;;9.00;7.00;;;;;28.58;29.50;101312.41;5071249;28;46375;-83
2022/07/18 08:56:34;;;;;;;;;6.25;6.25;;;;;28.65;28.38;101308.69;5070217;28;46539;-84
2022/07/18 08:59:02;;;;;;;;;6.25;5.50;;;;;28.72;28.67;101308.63;5052816;28;48012;-83
2022/07/18 09:01:28;;;;;;;;;5.25;5.00;;;;;28.70;28.20;101300.78;5069230;28;45793;-83
2022/07/18 09:06:44;;;;;;;;;7.25;7.25;;;;;28.91;28.13;101310.50;5059066;27;46122;-82
2022/07/18 09:09:11;;;;;;;;;6.25;5.00;;;;;28.99;27.44;101307.56;5058744;28;46351;-87
2022/07/18 09:11:37;;;;;;;;;8.75;7.00;;;;;29.07;27.94;101306.50;5068924;28;45712;-83
2022/07/18 09:14:02;;;;;;;;;7.00;6.75;;;;;29.13;28.76;101313.75;5067197;28;46197;-81
2022/07/18 09:16:28;;;;;;;;;8.00;8.00;;;;;29.17;27.17;101307.72;5069782;28;45692;-81
2022/07/18 09:18:53;;;;;;;;;8.50;7.75;;;;;29.28;27.94;101310.78;5067201;28;46049;-82
2022/07/18 09:21:22;;;;;;;;;6.75;6.75;;;;;29.35;27.20;101309.75;5070200;28;45672;-81
2022/07/18 09:23:51;;;;;;;;;6.25;6.25;;;;;29.41;27.06;101316.16;5078588;27;45908;-82
2022/07/18 09:26:40;;;;;;;;;7.00;7.00;;;;;29.47;26.94;101308.03;5071759;28;45703;-81
2022/07/18 09:29:05;;;;;;;;;7.00;7.00;;;;;29.49;26.77;101303.22;5069023;28;46547;-80
2022/07/18 09:31:31;;;;;;;;;8.25;7.00;;;;;29.61;27.34;101312.31;5073488;28;45644;-80
2022/07/18 09:33:58;;;;;;;;;8.00;8.00;;;;;29.64;26.89;101305.63;5055240;28;45852;-81
2022/07/18 09:36:24;;;;;;;;;9.25;8.00;;;;;29.76;26.28;101316.56;5072194;28;47005;-79
2022/07/18 09:38:50;;;;;;;;;8.25;7.25;;;;;29.81;26.58;101306.78;5072360;27;46472;-82
2022/07/18 09:41:16;;;;;;;;;7.50;6.00;;;;;29.87;27.32;101324.00;5066811;28;46106;-83
2022/07/18 09:43:41;;;;;;;;;8.25;6.75;;;;;29.94;26.81;101325.63;5064950;28;45924;-86
2022/07/18 09:46:07;;;;;;;;;7.75;7.00;;;;;29.92;26.20;101311.50;5068626;28;46831;-85
2022/07/18 09:48:34;;;;;;;;;8.00;8.00;;;;;30.08;26.56;101328.22;5040631;28;46299;-86
2022/07/18 09:51:05;;;;;;;;;6.00;6.00;;;;;30.14;26.31;101324.66;5066965;28;45829;-85
2022/07/18 09:53:34;;;;;;;;;8.00;7.25;;;;;30.20;25.92;101327.31;5060609;28;45696;-86
2022/07/18 09:56:06;;;;;;;;;5.75;5.75;;;;;30.24;26.65;101315.00;5069717;27;47281;-84
2022/07/18 09:58:39;;;;;;;;;8.00;7.25;;;;;30.32;25.82;101314.72;5078297;27;46357;-81
2022/07/18 10:01:07;;;;;;;;;7.25;6.75;;;;;30.41;25.84;101316.09;5070940;28;45802;-85
2022/07/18 10:03:33;;;;;;;;;6.00;6.00;;;;;30.49;25.76;101316.91;5072490;28;45852;-86
2022/07/18 10:06:00;;;;;;;;;5.25;5.25;;;;;30.53;25.13;101313.53;5073380;28;45635;-86
2022/07/18 10:08:29;;;;;;;;;6.00;6.00;;;;;30.62;25.49;101316.75;5071234;28;46065;-82
2022/07/18 10:10:58;;;;;;;;;9.00;7.75;;;;;30.65;25.84;101311.75;5052466;28;45747;-83
2022/07/18 10:13:26;;;;;;;;;6.00;5.50;;;;;30.69;25.61;101304.00;5060572;27;45646;-81
2022/07/18 10:15:52;;;;;;;;;5.50;5.50;;;;;30.76;24.86;101302.06;5057899;28;46706;-80
2022/07/18 10:18:20;;;;;;;;;7.00;7.00;;;;;30.73;25.19;101276.25;5054452;28;45900;-79
2022/07/18 10:20:50;;;;;;;;;6.50;5.75;;;;;30.92;24.73;101303.34;5071360;28;46111;-78
2022/07/18 10:23:23;;;;;;;;;5.75;5.75;;;;;30.98;24.99;101291.59;5062394;28;45804;-78
2022/07/18 10:26:07;;;;;;;;;7.00;7.00;;;;;31.06;25.05;101299.44;5072207;28;46787;-78
2022/07/18 10:28:32;;;;;;;;;8.25;7.25;;;;;31.09;24.91;101293.59;5072050;28;46402;-80
2022/07/18 10:31:30;;;;;;;;;10.00;8.00;;;;;31.17;24.74;101293.25;5067397;27;45724;-79
2022/07/18 10:34:05;;;;;;;;;7.00;7.00;;;;;31.23;24.73;101295.91;5060888;28;45882;-84
2022/07/18 10:36:30;;;;;;;;;7.50;5.75;;;;;31.26;24.43;101283.75;5064329;28;46767;-83
2022/07/18 10:39:25;;;;;;;;;7.75;7.50;;;;;31.34;24.46;101294.28;5062102;28;45665;-84
2022/07/18 10:42:01;;;;;;;;;8.75;7.75;;;;;31.41;24.68;101288.78;5059610;28;46022;-83
2022/07/18 10:44:29;;;;;;;;;7.75;7.00;;;;;31.45;23.98;101288.09;5070657;28;45882;-83
2022/07/18 10:47:17;;;;;;;;;7.75;6.50;;;;;31.49;24.79;101277.63;5053293;27;47936;-85
2022/07/18 10:49:56;;;;;;;;;7.75;7.00;;;;;31.60;23.62;101287.69;5059894;28;46393;-80
2022/07/18 10:52:24;;;;;;;;;7.25;7.25;;;;;31.65;23.62;101279.69;5068743;28;45561;-84
2022/07/18 10:55:18;;;;;;;;;7.50;7.00;;;;;31.73;23.46;101289.41;5062137;28;45700;-84
2022/07/18 10:57:50;;;;;;;;;7.00;6.75;;;;;31.79;23.74;101300.16;5064857;28;45977;-80
2022/07/18 11:00:28;;;;;;;;;7.00;6.75;;;;;31.85;23.23;101292.97;5068145;28;46224;-84
2022/07/18 11:03:00;;;;;;;;;7.00;6.50;;;;;31.94;23.37;101286.16;5064397;28;45752;-79
2022/07/18 11:05:25;;;;;;;;;6.75;6.00;;;;;32.01;23.48;101284.16;5071901;27;45718;-81
2022/07/18 11:08:03;;;;;;;;;6.00;5.25;;;;;32.06;23.83;101285.13;5069734;28;46393;-82
2022/07/18 11:10:44;;;;;;;;;7.75;7.25;;;;;32.15;23.61;101279.34;5066555;28;46774;-81
2022/07/18 11:13:28;;;;;;;;;6.00;6.00;;;;;32.21;23.22;101276.53;5065650;28;45585;-82
2022/07/18 11:16:05;;;;;;;;;7.50;6.00;;;;;32.26;23.57;101273.94;5062004;28;45799;-82
2022/07/18 11:18:53;;;;;;;;;5.75;5.75;;;;;32.34;23.07;101278.16;5047110;28;46425;-81
2022/07/18 11:21:20;;;;;;;;;6.75;5.75;;;;;32.38;22.57;101271.22;5045698;28;45942;-82
2022/07/18 11:23:49;;;;;;;;;6.75;6.75;;;;;32.42;22.80;101256.13;5051608;28;47026;-82
2022/07/18 11:26:16;;;;;;;;;6.50;6.00;;;;;32.42;22.26;101256.13;5069594;28;45924;-81
2022/07/18 11:28:42;;;;;;;;;6.75;6.00;;;;;32.48;22.73;101256.00;5044880;28;47451;-82
2022/07/18 11:31:10;;;;;;;;;6.00;6.00;;;;;32.58;22.47;101263.53;5052904;28;45700;-83
2022/07/18 11:33:38;;;;;;;;;6.75;6.00;;;;;32.62;22.40;101259.28;5072097;28;45693;-83
2022/07/18 11:36:05;;;;;;;;;8.00;6.50;;;;;32.66;22.30;101265.91;5069395;28;46073;-84
2022/07/18 11:38:30;;;;;;;;;6.75;6.25;;;;;32.63;22.40;101246.53;5046934;27;48730;-83
2022/07/18 11:40:56;;;;;;;;;5.50;5.00;;;;;32.76;22.30;101263.44;5074743;27;46421;-81
2022/07/18 11:43:26;;;;;;;;;5.25;5.25;;;;;32.76;22.78;101249.88;5071220;28;45661;-82
2022/07/18 11:46:06;;;;;;;;;7.00;6.25;;;;;32.83;22.28;101249.69;5070106;28;45975;-85
2022/07/18 11:48:32;;;;;;;;;6.75;6.75;;;;;32.94;22.52;101251.56;5070757;28;45749;-82
2022/07/18 11:50:58;;;;;;;;;2.00;2.00;;;;;32.95;21.82;101233.38;5070661;28;46540;-82
2022/07/18 11:53:24;;;;;;;;;8.25;8.00;;;;;33.04;21.79;101245.53;5069821;28;46268;-82
2022/07/18 11:55:49;;;;;;;;;6.25;6.25;;;;;33.13;22.07;101241.34;5052443;28;45654;-83
2022/07/18 11:58:17;;;;;;;;;5.50;5.25;;;;;33.19;22.02;101245.84;5070774;28;46603;-82
2022/07/18 12:00:43;;;;;;;;;6.00;5.00;;;;;33.24;21.50;101241.34;5071609;28;45923;-82
2022/07/18 12:03:19;;;;;;;;;5.00;5.00;;;;;33.34;21.21;101245.31;5071840;28;45650;-83
2022/07/18 12:05:48;;;;;;;;;5.75;5.00;;;;;33.38;21.92;101233.69;5052953;28;45930;-85
2022/07/18 12:08:25;;;;;;;;;5.00;4.75;;;;;33.47;21.54;101236.88;5071385;28;46627;-82
2022/07/18 12:11:06;;;;;;;;;4.25;4.00;;;;;33.53;21.05;101239.41;5069559;28;46348;-81
2022/07/18 12:13:57;;;;;;;;;4.00;4.00;;;;;33.61;20.34;101230.03;5081038;27;45760;-80
2022/07/18 12:16:36;;;;;;;;;4.25;4.25;;;;;33.69;20.12;101225.03;5069178;28;45740;-79
2022/07/18 12:19:24;;;;;;;;;5.00;3.75;;;;;33.77;20.77;101229.25;5067999;28;46436;-81
2022/07/18 12:22:04;;;;;;;;;3.75;3.75;;;;;33.78;20.27;101220.03;5066932;28;46065;-79
2022/07/18 12:24:34;;;;;;;;;3.75;3.25;;;;;33.87;19.86;101229.41;5064332;28;45718;-81
2022/07/18 12:27:18;;;;;;;;;2.00;2.00;;;;;33.92;19.22;101221.31;5056388;28;45655;-78